M I D A S
Marine Information and Data Acquisition System
Tripno 1585 of the Zeeleeuw from 2008-10-10 06:02:11 to 2008-10-10 16:15:36
Back to CruiseResearch ActivitiesStationsMapUnderway DataData graphs

EquipmentUnitsComment
TimeDGPSUTC
LatitudeDGPSDM.mWGS84
LongitudeDGPSDM.mWGS84
HeadingGyrodeg 
SOGDGPSknotsSpeed over ground
COGDGPSdegCourse over ground
DepthEcho soundermeters200 kHz
Missing or incorrect values are displayed as -999
Navigation data collected by the RV Zeeleeuw from 2008-10-10 06:02:11 to 2008-10-10 16:15:36
Time Latitude Longitude Heading SOG COG Depth
2008-10-10 06:04:20 51°13.622 2°56.047 115.5 0.1 195 -999
2008-10-10 06:06:20 51°13.658 2°55.912 114.7 4.5 294 -999
2008-10-10 06:08:20 51°13.773 2°55.693 135.9 5.5 315 -999
2008-10-10 06:10:20 51°13.924 2°55.646 199.3 4.4 17 -999
2008-10-10 06:12:20 51°14.006 2°55.525 317.8 6.29 321 -999
2008-10-10 06:14:20 51°14.261 2°55.248 325.8 11 322 -999
2008-10-10 06:16:20 51°14.399 2°54.705 276.1 11.59 271 -999
2008-10-10 06:18:20 51°14.232 2°54.143 242.3 11.69 243 -999
2008-10-10 06:20:20 51°14.047 2°53.6 239.6 11.69 239 -999
2008-10-10 06:22:20 51°13.853 2°53.062 240 11.69 241 -999
2008-10-10 06:24:20 51°13.663 2°52.511 240.4 11.8 242 -999
2008-10-10 06:26:20 51°13.486 2°51.95 242.5 11.8 243 -999
2008-10-10 06:28:20 51°13.306 2°51.392 242.3 11.8 242 -999
2008-10-10 06:30:20 51°13.123 2°50.844 241.4 11.8 242 -999
2008-10-10 06:32:20 51°12.938 2°50.295 239.1 11.69 241 -999
2008-10-10 06:34:20 51°12.752 2°49.75 241.1 11.69 242 -999
2008-10-10 06:36:20 51°12.578 2°49.192 245 11.69 246 -999
2008-10-10 06:38:20 51°12.407 2°48.637 241.5 11.59 242 -999
2008-10-10 06:40:20 51°12.233 2°48.09 243 11.59 243 -999
2008-10-10 06:42:20 51°12.065 2°47.533 243.8 11.59 245 -999
2008-10-10 06:44:20 51°11.896 2°46.979 243.6 11.59 244 -999
2008-10-10 06:46:20 51°11.779 2°46.388 255.6 11.69 258 -999
2008-10-10 06:48:20 51°11.716 2°45.781 260.1 11.59 262 -999
2008-10-10 06:50:20 51°11.671 2°45.172 263.8 11.59 265 -999
2008-10-10 06:52:20 51°11.629 2°44.567 263 11.4 262 -999
2008-10-10 06:54:20 51°11.569 2°43.973 260.1 11.4 261 -999
2008-10-10 06:56:20 51°11.527 2°43.373 261.8 11.4 262 -999
2008-10-10 06:58:20 51°11.413 2°42.804 246.9 11.3 247 -999
2008-10-10 07:00:20 51°11.271 2°42.251 247.5 11.3 249 -999
2008-10-10 07:02:20 51°11.135 2°41.694 245.5 11.3 246 -999
2008-10-10 07:04:20 51°10.982 2°41.147 244.6 11.3 246 -999
2008-10-10 07:06:20 51°10.824 2°40.603 244.6 11.3 244 -999
2008-10-10 07:08:20 51°10.666 2°40.057 244.5 11.4 244 -999
2008-10-10 07:10:20 51°10.501 2°39.518 244.8 11.4 246 -999
2008-10-10 07:12:20 51°10.33 2°38.982 242.3 11.4 243 -999
2008-10-10 07:14:20 51°10.154 2°38.451 238.8 11.3 240 -999
2008-10-10 07:16:20 51°9.979 2°37.92 241.4 11.3 241 -999
2008-10-10 07:18:20 51°9.919 2°37.526 287.6 5.7 310 -999
2008-10-10 07:20:20 51°10.211 2°37.241 315.1 12 318 -999
2008-10-10 07:22:20 51°10.503 2°36.81 310.8 11.8 315 -999
2008-10-10 07:24:20 51°10.882 2°36.712 6.7 12.59 11 -999
2008-10-10 07:26:20 51°11.287 2°36.942 17.8 12.9 19 -999
2008-10-10 07:28:20 51°11.668 2°37.265 29 13 31 -999
2008-10-10 07:30:20 51°12.04 2°37.618 27.1 13 29 -999
2008-10-10 07:32:20 51°12.419 2°37.95 26.8 13 30 -999
2008-10-10 07:34:20 51°12.798 2°38.273 27.3 12.9 30 -999
2008-10-10 07:36:20 51°13.17 2°38.621 29.3 13 30 -999
2008-10-10 07:38:20 51°13.544 2°38.966 29.3 13 31 -999
2008-10-10 07:40:20 51°13.923 2°39.284 26.1 12.9 27 -999
2008-10-10 07:42:20 51°14.302 2°39.596 25.3 12.8 27 -999
2008-10-10 07:44:20 51°14.684 2°39.895 24.1 12.8 25 -999
2008-10-10 07:46:20 51°15.074 2°40.163 21.5 12.69 24 -999
2008-10-10 07:48:20 51°15.467 2°40.416 19.5 12.69 21 -999
2008-10-10 07:50:20 51°15.859 2°40.683 22.8 12.8 24 -999
2008-10-10 07:52:20 51°16.253 2°40.939 19.6 12.8 22 -999
2008-10-10 07:54:20 51°16.647 2°41.204 20.8 12.8 22 -999
2008-10-10 07:56:20 51°17.043 2°41.464 20.1 12.9 22 -999
2008-10-10 07:58:20 51°17.451 2°41.621 2.1 12.69 2 -999
2008-10-10 08:00:20 51°17.873 2°41.637 358.8 12.69   -999
2008-10-10 08:02:20 51°18.296 2°41.659 359.6 12.8 3 -999
2008-10-10 08:04:20 51°18.724 2°41.696 1.1 12.69 3 -999
2008-10-10 08:06:20 51°19.147 2°41.73 1.8 12.9 5 -999
2008-10-10 08:08:20 51°19.543 2°41.585 338.1 12.4 341 -999
2008-10-10 08:10:20 51°19.941 2°41.413 344.1 12.4 347 -999
2008-10-10 08:12:20 51°20.36 2°41.404 359.8 12.59 1 -999
2008-10-10 08:14:20 51°20.783 2°41.418 358.1 12.69 1 -999
2008-10-10 08:16:20 51°21.208 2°41.436 357.6 12.8 1 -999
2008-10-10 08:18:20 51°21.631 2°41.478 359.3 12.69 3 -999
2008-10-10 08:20:20 51°21.972 2°41.903 39.6 13.19 39 -999
2008-10-10 08:22:20 51°22.251 2°42.444 52.2 13.19 50 -999
2008-10-10 08:24:20 51°22.572 2°42.909 35.2 13.19 32 -999
2008-10-10 08:26:20 51°22.988 2°42.943 350.1 12.69 352 -999
2008-10-10 08:28:20 51°23.408 2°42.866 351.6 12.8 355 -999
2008-10-10 08:30:20 51°23.826 2°42.765 350.8 12.69 352 -999
2008-10-10 08:32:20 51°24.244 2°42.663 347.6 12.59 350 -999
2008-10-10 08:34:20 51°24.663 2°42.558 347.5 12.69 349 -999
2008-10-10 08:36:20 51°25.084 2°42.451 348.3 12.8 350 -999
2008-10-10 08:38:20 51°25.503 2°42.336 347.6 12.69 351 -999
2008-10-10 08:40:20 51°25.846 2°42.253 346.8 7.59 353 -999
2008-10-10 08:42:20 51°26.055 2°42.242 351.8 6.09 2 -999
2008-10-10 08:44:20 51°26.056 2°42.464 154.3 4.9 145 -999
2008-10-10 08:46:20 51°26.085 2°42.935 78.2 12.19 76 -999
2008-10-10 08:48:20 51°26.337 2°43.493 47.3 13.09 45 -999
2008-10-10 08:50:20 51°26.642 2°43.983 43.5 13.09 42 -999
2008-10-10 08:52:20 51°26.95 2°44.478 45.8 13.19 47 -999
2008-10-10 08:54:20 51°27.255 2°44.978 46.3 13 44 -999
2008-10-10 08:56:20 51°27.59 2°45.419 37.3 12.9 39 -999
2008-10-10 08:58:20 51°27.932 2°45.856 38.5 13.3 39 -999
2008-10-10 09:00:20 51°28.27 2°46.307 40.6 13.4 38 -999
2008-10-10 09:02:20 51°28.604 2°46.751 38.1 13.09 39 -999
2008-10-10 09:04:20 51°28.938 2°47.203 39.7 13.3 41 -999
2008-10-10 09:06:20 51°29.29 2°47.614 33.7 13 33 -999
2008-10-10 09:08:20 51°29.648 2°48.011 35.1 13.09 34 -999
2008-10-10 09:10:20 51°30.005 2°48.401 34.2 13 38 -999
2008-10-10 09:12:20 51°30.364 2°48.796 33.5 13.09 35 -999
2008-10-10 09:14:20 51°30.719 2°49.197 34.8 13 33 -999
2008-10-10 09:16:20 51°31.076 2°49.592 33.7 13.09 35 -999
2008-10-10 09:18:20 51°31.436 2°49.998 34.7 13.19 37 -999
2008-10-10 09:20:20 51°31.598 2°50.589 89.9 12.9 83 -999
2008-10-10 09:22:20 51°31.678 2°51.192 92.2 9.59 87 -999
2008-10-10 09:24:20 51°31.694 2°51.654 94.5 9.19 86 -999
2008-10-10 09:26:20 51°31.718 2°52.037 93.5 5.29 81 -999
2008-10-10 09:28:20 51°31.76 2°52.147 89.5 1.6 330 -999
2008-10-10 09:30:20 51°31.793 2°52.125 59.7 1 344 -999
2008-10-10 09:32:20 51°31.831 2°52.146 45.7 1.6 27 -999
2008-10-10 09:34:20 51°31.884 2°52.222 70.2 2.6 50 -999
2008-10-10 09:36:20 51°31.838 2°52.313 191 2.6 186 -999
2008-10-10 09:38:20 51°31.864 2°51.935 301.8 11.19 319 -999
2008-10-10 09:40:20 51°32.239 2°51.649 335.8 12.9 343 -999
2008-10-10 09:42:20 51°32.663 2°51.516 347.6 13 353 -999
2008-10-10 09:44:20 51°32.918 2°51.565 14.4 5.4 21 -999
2008-10-10 09:46:20 51°33.052 2°51.639 3.1 4.09 16 -999
2008-10-10 09:48:20 51°33.151 2°51.656 317.3 2.2 4 -999
2008-10-10 09:50:20 51°33.209 2°51.686 301.3 1.8 24 -999
2008-10-10 09:52:20 51°33.243 2°51.65 241.6 1 275 -999
2008-10-10 09:54:20 51°33.152 2°51.588 206 3.7 200 -999
2008-10-10 09:56:20 51°33.12 2°51.637 145.5 1.69 58 -999
2008-10-10 09:58:20 51°33.176 2°51.683 107.7 1.89 39 -999
2008-10-10 10:00:20 51°33.22 2°51.771 111.4 2.39 61 -999
2008-10-10 10:02:20 51°33.436 2°51.914 358.5 10.09 4 -999
2008-10-10 10:04:20 51°33.822 2°52.188 36.5 13.4 42 -999
2008-10-10 10:06:20 51°34.041 2°52.472 23.8 6.4 25 -999
2008-10-10 10:08:20 51°34.142 2°52.474 316.6 2.29 5 -999
2008-10-10 10:10:20 51°34.2 2°52.505 299.6 1.8 24 -999
2008-10-10 10:12:20 51°34.25 2°52.558 297.1 1.89 35 -999
2008-10-10 10:14:20 51°34.299 2°52.627 305.1 2 43 -999
2008-10-10 10:16:20 51°34.432 2°52.684 350.3 7.59 9 -999
2008-10-10 10:18:20 51°34.692 2°53.178 54.2 13.09 58 -999
2008-10-10 10:20:20 51°34.869 2°53.833 69.9 13.5 66 -999
2008-10-10 10:22:20 51°35.05 2°54.483 67.7 13.4 66 -999
2008-10-10 10:24:20 51°35.233 2°55.131 67.4 13.19 65 -999
2008-10-10 10:26:20 51°35.418 2°55.776 68.2 13.09 64 -999
2008-10-10 10:28:20 51°35.594 2°56.416 68.7 13.19 67 -999
2008-10-10 10:30:20 51°35.788 2°57.045 65 13 62 -999
2008-10-10 10:32:20 51°36.046 2°57.621 54.8 13.4 55 -999
2008-10-10 10:34:20 51°36.287 2°57.859 18.6 6.29 24 -999
2008-10-10 10:36:20 51°36.448 2°57.984 20.8 5.2 22 -999
2008-10-10 10:38:20 51°36.538 2°57.981 308.5 1.89 6 -999
2008-10-10 10:40:20 51°36.587 2°58.015 288.8 1.69 23 -999
2008-10-10 10:42:20 51°36.637 2°58.063 301 1.8 29 -999
2008-10-10 10:44:20 51°36.638 2°57.969 225.6 3 232 -999
2008-10-10 10:46:20 51°36.546 2°57.847 211 3.29 202 -999
2008-10-10 10:48:20 51°36.54 2°57.905 152.8 1.5 73 -999
2008-10-10 10:50:20 51°36.555 2°57.986 145 1.6 79 -999
2008-10-10 10:52:20 51°36.58 2°58.061 141.6 1.6 55 -999
2008-10-10 10:54:20 51°36.573 2°58.134 165.5 2.6 153 -999
2008-10-10 10:56:20 51°36.523 2°58.041 206.5 2.7 189 -999
2008-10-10 10:58:20 51°36.446 2°57.943 233.6 3.7 244 -999
2008-10-10 11:00:20 51°36.495 2°57.929 317.8 1.8 19 -999
2008-10-10 11:02:20 51°36.546 2°57.98 317.8 1.8 31 -999
2008-10-10 11:04:20 51°36.594 2°58.038 308.3 1.89 37 -999
2008-10-10 11:06:20 51°36.642 2°58.097 315.6 1.89 37 -999
2008-10-10 11:08:20 51°36.689 2°58.154 320.1 1.8 35 -999
2008-10-10 11:10:20 51°36.744 2°58.125 271.3 1.89 312 -999
2008-10-10 11:12:20 51°36.733 2°58.071 216.4 0.9 235 -999
2008-10-10 11:14:20 51°36.721 2°58.073 209.1 0.29 151 -999
2008-10-10 11:16:20 51°36.745 2°58.065 248.9 1 340 -999
2008-10-10 11:18:20 51°36.714 2°58.067 189 1.69 170 -999
2008-10-10 11:20:20 51°36.693 2°58.057 217 0.1 200 -999
2008-10-10 11:22:20 51°36.712 2°58.051 242 0.9 339 -999
2008-10-10 11:24:20 51°36.734 2°58.039 223.4 0.69 15 -999
2008-10-10 11:26:20 51°36.738 2°58.072 191.5 0.9 144 -999
2008-10-10 11:28:20 51°36.696 2°58.069 214 1.39 209 -999
2008-10-10 11:30:20 51°36.66 2°58.023 213.9 0.9 212 -999
2008-10-10 11:32:20 51°36.692 2°58.016 269.3 1.5 3 -999
2008-10-10 11:34:20 51°36.745 2°58.06 309.3 1.69 31 -999
2008-10-10 11:36:20 51°36.804 2°58.073 304 1.69 14 -999
2008-10-10 11:38:20 51°36.855 2°58.112 308.8 1.8 30 -999
2008-10-10 11:40:20 51°36.903 2°58.162 309.3 1.69 35 -999
2008-10-10 11:42:20 51°36.949 2°58.214 312.8 1.69 37 -999
2008-10-10 11:44:20 51°36.994 2°58.268 312.3 1.6 38 -999
2008-10-10 11:46:20 51°37.039 2°58.326 317 1.69 39 -999
2008-10-10 11:48:20 51°37.083 2°58.381 316.1 1.8 37 -999
2008-10-10 11:50:20 51°37.127 2°58.438 317.5 1.8 38 -999
2008-10-10 11:52:20 51°37.17 2°58.494 319.3 1.69 39 -999
2008-10-10 11:54:20 51°37.222 2°58.492 284.1 1.69 329 -999
2008-10-10 11:56:20 51°37.218 2°58.418 222 1.8 231 -999
2008-10-10 11:58:20 51°37.103 2°58.355 198 4.2 196 -999
2008-10-10 13:00:20 51°36.872 2°58.284 314.1 1.19 26 -999
2008-10-10 13:02:20 51°36.914 2°58.276 289.3 1.8 323 -999
2008-10-10 13:04:20 51°36.906 2°58.182 219.5 2.1 232 -999
2008-10-10 13:06:20 51°36.904 2°58.154 219.9 0.4 343 -999
2008-10-10 13:08:20 51°36.943 2°58.175 242.6 1.5 24 -999
2008-10-10 13:10:20 51°36.98 2°58.218 286.6 1.3 37 -999
2008-10-10 13:12:20 51°37.012 2°58.259 325.1 1.19 35 -999
2008-10-10 13:14:20 51°37.043 2°58.287 325.8 1.1 26 -999
2008-10-10 13:16:20 51°37.085 2°58.262 291 2.1 313 -999
2008-10-10 13:18:20 51°37.024 2°58.146 206.6 3.79 211 -999
2008-10-10 13:20:20 51°36.912 2°58.027 212.5 3.79 218 -999
2008-10-10 13:22:20 51°36.898 2°58.03 152.3 0.9 36 -999
2008-10-10 13:24:20 51°36.924 2°58.066 124.7 1.19 34 -999
2008-10-10 13:26:20 51°36.871 2°58.091 196 3 197 -999
2008-10-10 13:28:20 51°36.788 2°58.051 190.1 2.5 189 -999
2008-10-10 13:30:20 51°36.725 2°58.032 197.3 1.3 193 -999
2008-10-10 13:32:20 51°36.718 2°58.039 192.1 0.5 54 -999
2008-10-10 13:34:20 51°36.748 2°58.063 163.3 1.19 22 -999
2008-10-10 13:36:20 51°36.785 2°58.081 118.9 1.19 19 -999
2008-10-10 13:38:20 51°36.819 2°58.105 102 1.1 26 -999
2008-10-10 13:40:20 51°36.849 2°58.133 113.4 1 31 -999
2008-10-10 13:42:20 51°36.876 2°58.16 124.9 0.8 36 -999
2008-10-10 13:44:20 51°36.902 2°58.186 128.4 1 30 -999
2008-10-10 13:46:20 51°36.932 2°58.212 123.4 1.1 27 -999
2008-10-10 13:48:20 51°36.961 2°58.237 118.7 0.9 26 -999
2008-10-10 13:50:20 51°36.917 2°58.279 167.1 3.79 172 -999
2008-10-10 13:52:20 51°36.78 2°58.151 220.5 3 227 -999
2008-10-10 13:54:20 51°36.823 2°58.024 331.3 3.89 337 -999
2008-10-10 13:56:20 51°36.907 2°57.985 330.1 2.2 342 -999
2008-10-10 13:58:20 51°36.956 2°57.957 312.1 1.19 341 -999
2008-10-10 14:00:20 51°36.986 2°57.954 298.3 0.9 6 -999
2008-10-10 14:02:20 51°37.012 2°57.973 303.8 0.8 30 -999
2008-10-10 14:04:20 51°37.03 2°58 321.6 0.8 40 -999
2008-10-10 14:06:20 51°37.107 2°58.074 42.2 4.7 48 -999
2008-10-10 14:08:20 51°36.909 2°58.223 175.5 9.09 175 -999
2008-10-10 14:10:20 51°36.531 2°58.214 180.5 11.8 179 -999
2008-10-10 14:12:20 51°36.134 2°58.242 176.4 11.9 178 -999
2008-10-10 14:14:20 51°35.741 2°58.26 176.8 11.9 177 -999
2008-10-10 14:16:20 51°35.345 2°58.282 176.5 11.9 178 -999
2008-10-10 14:18:20 51°34.947 2°58.304 177.1 11.9 177 -999
2008-10-10 14:20:20 51°34.552 2°58.328 177 11.9 179 -999
2008-10-10 14:22:20 51°34.155 2°58.331 179.1 11.9 179 -999
2008-10-10 14:24:20 51°33.759 2°58.344 177.8 11.9 180 -999
2008-10-10 14:26:20 51°33.365 2°58.373 175.8 11.8 177 -999
2008-10-10 14:28:20 51°32.97 2°58.382 177 11.69 180 -999
2008-10-10 14:30:20 51°32.574 2°58.385 179 12 181 -999
2008-10-10 14:32:20 51°32.174 2°58.355 181 12.09 186 -999
2008-10-10 14:34:20 51°31.778 2°58.191 191.1 12.3 193 -999
2008-10-10 14:36:20 51°31.379 2°58.049 190 12.4 192 -999
2008-10-10 14:38:20 51°30.98 2°57.92 191.1 12.19 193 -999
2008-10-10 14:40:20 51°30.582 2°57.792 188.5 12.19 191 -999
2008-10-10 14:42:20 51°30.184 2°57.656 188 12.19 191 -999
2008-10-10 14:44:20 51°29.786 2°57.511 189.8 12.3 190 -999
2008-10-10 14:46:20 51°29.38 2°57.424 183.4 12.3 187 -999
2008-10-10 14:48:20 51°28.974 2°57.317 188 12.4 191 -999
2008-10-10 14:50:20 51°28.57 2°57.181 188.5 12.4 193 -999
2008-10-10 14:52:20 51°28.166 2°57.026 191 12.4 195 -999
2008-10-10 14:54:20 51°27.768 2°56.833 194.9 12.5 198 -999
2008-10-10 14:56:20 51°27.368 2°56.651 191.9 12.5 195 -999
2008-10-10 14:58:20 51°26.973 2°56.454 193 12.4 197 -999
2008-10-10 15:00:20 51°26.611 2°56.12 208.1 12.59 211 -999
2008-10-10 15:02:20 51°26.232 2°55.844 198.3 12.5 200 -999
2008-10-10 15:04:20 51°25.836 2°55.644 193.5 12.5 198 -999
2008-10-10 15:06:20 51°25.446 2°55.42 195.9 12.5 199 -999
2008-10-10 15:08:20 51°25.055 2°55.194 195.5 12.5 200 -999
2008-10-10 15:10:20 51°24.658 2°54.978 194 12.59 197 -999
2008-10-10 15:12:20 51°24.26 2°54.75 195.9 12.59 199 -999
2008-10-10 15:14:20 51°23.871 2°54.495 199.5 12.5 203 -999
2008-10-10 15:16:20 51°23.482 2°54.232 197 12.59 201 -999
2008-10-10 15:18:20 51°23.088 2°53.982 198.4 12.69 202 -999
2008-10-10 15:20:20 51°22.699 2°53.716 201.3 12.8 205 -999
2008-10-10 15:22:20 51°22.3 2°53.493 194.3 12.69 197 -999
2008-10-10 15:24:20 51°21.9 2°53.278 194.3 12.59 200 -999
2008-10-10 15:26:20 51°21.49 2°53.135 186.5 12.59 190 -999
2008-10-10 15:28:20 51°21.081 2°53.032 187.4 12.5 191 -999
2008-10-10 15:30:20 51°20.674 2°52.922 185 12.4 190 -999
2008-10-10 15:32:20 51°20.259 2°52.785 188.5 12.69 194 -999
2008-10-10 15:34:20 51°19.846 2°52.644 189.4 12.69 193 -999
2008-10-10 15:36:20 51°19.434 2°52.491 189.5 12.69 193 -999
2008-10-10 15:38:20 51°19.024 2°52.319 190.8 12.8 194 -999
2008-10-10 15:40:20 51°18.608 2°52.219 180.8 12.59 184 -999
2008-10-10 15:42:20 51°18.193 2°52.161 180.8 12.59 185 -999
2008-10-10 15:44:20 51°17.772 2°52.128 179.1 12.59 182 -999
2008-10-10 15:46:20 51°17.351 2°52.071 180.8 12.69 184 -999
2008-10-10 15:48:20 51°16.932 2°52.112 170.5 12.59 173 -999
2008-10-10 15:50:20 51°16.531 2°52.274 159.1 12.5 165 -999
2008-10-10 15:52:20 51°16.145 2°52.498 154.4 12.4 160 -999
2008-10-10 15:54:20 51°15.821 2°52.871 134 12 134 -999
2008-10-10 15:56:20 51°15.531 2°53.303 132.4 11.9 137 -999
2008-10-10 15:58:20 51°15.236 2°53.729 131.3 11.9 135 -999
2008-10-10 16:00:20 51°15.086 2°54.13 97.9 5.59 102 -999
2008-10-10 16:02:20 51°15.087 2°54.232 67.7 0.9 80 -999
2008-10-10 16:04:20 51°15.086 2°54.263 79.9 0.5 108 -999
2008-10-10 16:06:20 51°15.076 2°54.277 97.2 0.4 148 -999
2008-10-10 16:08:20 51°15.063 2°54.278 111 0.4 189 -999
2008-10-10 16:10:20 51°15.026 2°54.325 123.2 3 136 -999
2008-10-10 16:12:20 51°14.867 2°54.523 138.5 7.59 145 -999
2008-10-10 16:14:20 51°14.556 2°54.868 141.4 11.8 143 -999